sensor_id;sensor_type;location;lat;lon;timestamp;P1;durP1;ratioP1;P2;durP2;ratioP2
21352;SDS011;10834;52.268;6.770;2023-02-23T00:02:18;76.00;;;43.03;;
21352;SDS011;10834;52.268;6.770;2023-02-23T00:05:05;76.43;;;43.30;;
21352;SDS011;10834;52.268;6.770;2023-02-23T00:07:52;78.73;;;44.33;;
21352;SDS011;10834;52.268;6.770;2023-02-23T00:10:38;74.73;;;42.30;;
21352;SDS011;10834;52.268;6.770;2023-02-23T00:13:25;73.83;;;41.47;;
21352;SDS011;10834;52.268;6.770;2023-02-23T00:16:12;76.67;;;42.67;;
21352;SDS011;10834;52.268;6.770;2023-02-23T00:18:59;84.87;;;45.33;;
21352;SDS011;10834;52.268;6.770;2023-02-23T00:21:46;72.93;;;43.23;;
21352;SDS011;10834;52.268;6.770;2023-02-23T00:24:32;76.60;;;42.97;;
21352;SDS011;10834;52.268;6.770;2023-02-23T00:27:21;76.90;;;42.10;;
21352;SDS011;10834;52.268;6.770;2023-02-23T00:30:07;77.93;;;44.37;;
21352;SDS011;10834;52.268;6.770;2023-02-23T00:32:54;81.20;;;44.07;;
21352;SDS011;10834;52.268;6.770;2023-02-23T00:35:40;77.33;;;43.43;;
21352;SDS011;10834;52.268;6.770;2023-02-23T00:38:27;81.70;;;45.57;;
21352;SDS011;10834;52.268;6.770;2023-02-23T00:41:14;72.23;;;42.60;;
21352;SDS011;10834;52.268;6.770;2023-02-23T00:44:26;81.40;;;44.57;;
21352;SDS011;10834;52.268;6.770;2023-02-23T00:47:13;78.90;;;44.30;;
21352;SDS011;10834;52.268;6.770;2023-02-23T00:49:59;81.50;;;44.50;;
21352;SDS011;10834;52.268;6.770;2023-02-23T00:52:45;75.17;;;41.80;;
21352;SDS011;10834;52.268;6.770;2023-02-23T00:55:31;72.70;;;41.67;;
21352;SDS011;10834;52.268;6.770;2023-02-23T00:58:17;78.83;;;43.27;;
21352;SDS011;10834;52.268;6.770;2023-02-23T01:01:07;72.07;;;43.13;;
21352;SDS011;10834;52.268;6.770;2023-02-23T01:03:54;74.27;;;44.47;;
21352;SDS011;10834;52.268;6.770;2023-02-23T01:06:40;74.07;;;45.00;;
21352;SDS011;10834;52.268;6.770;2023-02-23T01:09:27;78.37;;;44.43;;
21352;SDS011;10834;52.268;6.770;2023-02-23T01:12:13;74.70;;;44.10;;
21352;SDS011;10834;52.268;6.770;2023-02-23T01:15:01;77.10;;;44.13;;
21352;SDS011;10834;52.268;6.770;2023-02-23T01:17:48;76.40;;;44.93;;
21352;SDS011;10834;52.268;6.770;2023-02-23T01:20:34;81.00;;;45.40;;
21352;SDS011;10834;52.268;6.770;2023-02-23T01:23:20;80.73;;;44.43;;
21352;SDS011;10834;52.268;6.770;2023-02-23T01:26:26;77.50;;;43.73;;
21352;SDS011;10834;52.268;6.770;2023-02-23T01:29:15;81.40;;;43.47;;
21352;SDS011;10834;52.268;6.770;2023-02-23T01:32:02;82.13;;;43.77;;
21352;SDS011;10834;52.268;6.770;2023-02-23T01:34:48;76.33;;;43.13;;
21352;SDS011;10834;52.268;6.770;2023-02-23T01:37:34;78.37;;;45.33;;
21352;SDS011;10834;52.268;6.770;2023-02-23T01:40:25;84.07;;;43.57;;
21352;SDS011;10834;52.268;6.770;2023-02-23T01:43:16;84.57;;;43.90;;
21352;SDS011;10834;52.268;6.770;2023-02-23T01:46:10;82.80;;;46.07;;
21352;SDS011;10834;52.268;6.770;2023-02-23T01:48:56;84.40;;;44.40;;
21352;SDS011;10834;52.268;6.770;2023-02-23T01:51:44;78.10;;;43.83;;
21352;SDS011;10834;52.268;6.770;2023-02-23T01:54:34;84.20;;;48.03;;
21352;SDS011;10834;52.268;6.770;2023-02-23T01:57:23;79.73;;;42.00;;
21352;SDS011;10834;52.268;6.770;2023-02-23T02:00:11;80.27;;;43.27;;
21352;SDS011;10834;52.268;6.770;2023-02-23T02:02:59;76.57;;;43.50;;
21352;SDS011;10834;52.268;6.770;2023-02-23T02:05:51;82.77;;;45.30;;
21352;SDS011;10834;52.268;6.770;2023-02-23T02:08:39;85.17;;;44.77;;
21352;SDS011;10834;52.268;6.770;2023-02-23T02:11:30;87.57;;;46.07;;
21352;SDS011;10834;52.268;6.770;2023-02-23T02:14:25;84.00;;;45.77;;
21352;SDS011;10834;52.268;6.770;2023-02-23T02:33:01;80.33;;;43.53;;
21352;SDS011;10834;52.268;6.770;2023-02-23T02:38:57;74.03;;;42.33;;
21352;SDS011;10834;52.268;6.770;2023-02-23T02:42:14;76.93;;;41.43;;
21352;SDS011;10834;52.268;6.770;2023-02-23T02:51:34;84.23;;;43.43;;
21352;SDS011;10834;52.268;6.770;2023-02-23T02:54:08;79.57;;;43.83;;
21352;SDS011;10834;52.268;6.770;2023-02-23T02:56:56;84.33;;;45.57;;
21352;SDS011;10834;52.268;6.770;2023-02-23T02:59:46;83.70;;;44.90;;
21352;SDS011;10834;52.268;6.770;2023-02-23T03:02:53;77.77;;;41.63;;
21352;SDS011;10834;52.268;6.770;2023-02-23T03:05:57;79.43;;;42.83;;
21352;SDS011;10834;52.268;6.770;2023-02-23T03:09:07;72.50;;;40.53;;
21352;SDS011;10834;52.268;6.770;2023-02-23T03:19:35;78.50;;;41.47;;
21352;SDS011;10834;52.268;6.770;2023-02-23T03:23:05;82.10;;;41.90;;
21352;SDS011;10834;52.268;6.770;2023-02-23T03:29:45;76.47;;;42.40;;
21352;SDS011;10834;52.268;6.770;2023-02-23T03:33:07;85.10;;;43.63;;
21352;SDS011;10834;52.268;6.770;2023-02-23T03:36:18;89.00;;;43.60;;
21352;SDS011;10834;52.268;6.770;2023-02-23T03:42:48;75.37;;;39.90;;
21352;SDS011;10834;52.268;6.770;2023-02-23T03:45:55;76.70;;;40.03;;
21352;SDS011;10834;52.268;6.770;2023-02-23T03:49:02;69.67;;;38.50;;
21352;SDS011;10834;52.268;6.770;2023-02-23T03:52:17;76.90;;;39.17;;
21352;SDS011;10834;52.268;6.770;2023-02-23T03:55:27;73.87;;;39.17;;
21352;SDS011;10834;52.268;6.770;2023-02-23T03:58:38;74.57;;;38.53;;
21352;SDS011;10834;52.268;6.770;2023-02-23T04:01:49;76.77;;;39.07;;
21352;SDS011;10834;52.268;6.770;2023-02-23T04:04:57;78.73;;;41.57;;
21352;SDS011;10834;52.268;6.770;2023-02-23T04:08:05;77.27;;;39.33;;
21352;SDS011;10834;52.268;6.770;2023-02-23T04:11:18;77.53;;;39.03;;
21352;SDS011;10834;52.268;6.770;2023-02-23T04:14:42;74.77;;;37.97;;
21352;SDS011;10834;52.268;6.770;2023-02-23T04:17:33;77.73;;;38.57;;
21352;SDS011;10834;52.268;6.770;2023-02-23T04:20:19;77.33;;;38.33;;
21352;SDS011;10834;52.268;6.770;2023-02-23T04:23:05;80.87;;;37.67;;
21352;SDS011;10834;52.268;6.770;2023-02-23T04:25:52;82.43;;;39.37;;
21352;SDS011;10834;52.268;6.770;2023-02-23T04:28:39;81.93;;;36.70;;
21352;SDS011;10834;52.268;6.770;2023-02-23T04:31:25;79.17;;;39.10;;
21352;SDS011;10834;52.268;6.770;2023-02-23T04:34:11;79.83;;;37.83;;
21352;SDS011;10834;52.268;6.770;2023-02-23T04:36:57;77.37;;;36.70;;
21352;SDS011;10834;52.268;6.770;2023-02-23T04:39:43;80.63;;;39.20;;
21352;SDS011;10834;52.268;6.770;2023-02-23T04:42:32;80.87;;;37.50;;
21352;SDS011;10834;52.268;6.770;2023-02-23T04:45:19;77.97;;;36.90;;
21352;SDS011;10834;52.268;6.770;2023-02-23T04:48:06;82.23;;;38.27;;
21352;SDS011;10834;52.268;6.770;2023-02-23T04:50:52;84.67;;;38.50;;
21352;SDS011;10834;52.268;6.770;2023-02-23T04:53:39;76.53;;;37.23;;
21352;SDS011;10834;52.268;6.770;2023-02-23T04:56:25;73.73;;;36.50;;
21352;SDS011;10834;52.268;6.770;2023-02-23T04:59:11;79.23;;;37.80;;
21352;SDS011;10834;52.268;6.770;2023-02-23T05:01:57;78.17;;;36.33;;
21352;SDS011;10834;52.268;6.770;2023-02-23T05:04:44;76.13;;;36.40;;
21352;SDS011;10834;52.268;6.770;2023-02-23T05:07:30;82.77;;;37.57;;
21352;SDS011;10834;52.268;6.770;2023-02-23T05:10:16;78.03;;;36.67;;
21352;SDS011;10834;52.268;6.770;2023-02-23T05:13:02;79.50;;;36.50;;
21352;SDS011;10834;52.268;6.770;2023-02-23T05:15:48;81.47;;;37.63;;
21352;SDS011;10834;52.268;6.770;2023-02-23T05:18:34;79.63;;;36.77;;
21352;SDS011;10834;52.268;6.770;2023-02-23T05:21:20;75.73;;;36.03;;
21352;SDS011;10834;52.268;6.770;2023-02-23T05:24:06;73.43;;;35.53;;
21352;SDS011;10834;52.268;6.770;2023-02-23T05:26:53;76.00;;;37.07;;
21352;SDS011;10834;52.268;6.770;2023-02-23T05:29:39;72.57;;;35.23;;
21352;SDS011;10834;52.268;6.770;2023-02-23T05:32:26;75.27;;;35.87;;
21352;SDS011;10834;52.268;6.770;2023-02-23T05:35:12;76.30;;;35.50;;
21352;SDS011;10834;52.268;6.770;2023-02-23T05:37:58;80.17;;;36.10;;
21352;SDS011;10834;52.268;6.770;2023-02-23T05:40:44;78.47;;;36.03;;
21352;SDS011;10834;52.268;6.770;2023-02-23T05:43:29;71.93;;;33.57;;
21352;SDS011;10834;52.268;6.770;2023-02-23T05:46:16;71.93;;;34.80;;
21352;SDS011;10834;52.268;6.770;2023-02-23T05:49:04;71.33;;;34.57;;
21352;SDS011;10834;52.268;6.770;2023-02-23T05:51:50;65.00;;;32.27;;
21352;SDS011;10834;52.268;6.770;2023-02-23T05:54:36;65.30;;;31.47;;
21352;SDS011;10834;52.268;6.770;2023-02-23T05:57:22;64.27;;;31.77;;
21352;SDS011;10834;52.268;6.770;2023-02-23T06:00:09;68.00;;;32.13;;
21352;SDS011;10834;52.268;6.770;2023-02-23T06:02:56;70.30;;;32.77;;
21352;SDS011;10834;52.268;6.770;2023-02-23T06:05:42;69.07;;;29.63;;
21352;SDS011;10834;52.268;6.770;2023-02-23T06:08:37;74.60;;;32.43;;
21352;SDS011;10834;52.268;6.770;2023-02-23T06:11:23;62.10;;;30.53;;
21352;SDS011;10834;52.268;6.770;2023-02-23T06:14:09;62.97;;;30.30;;
21352;SDS011;10834;52.268;6.770;2023-02-23T06:16:55;58.83;;;30.57;;
21352;SDS011;10834;52.268;6.770;2023-02-23T06:19:41;65.70;;;30.33;;
21352;SDS011;10834;52.268;6.770;2023-02-23T06:22:27;57.27;;;30.40;;
21352;SDS011;10834;52.268;6.770;2023-02-23T06:25:13;62.43;;;30.43;;
21352;SDS011;10834;52.268;6.770;2023-02-23T06:27:59;59.87;;;28.60;;
21352;SDS011;10834;52.268;6.770;2023-02-23T06:30:45;59.23;;;27.57;;
21352;SDS011;10834;52.268;6.770;2023-02-23T06:33:32;57.83;;;27.37;;
21352;SDS011;10834;52.268;6.770;2023-02-23T06:36:19;52.07;;;26.63;;
21352;SDS011;10834;52.268;6.770;2023-02-23T06:39:05;60.20;;;28.47;;
21352;SDS011;10834;52.268;6.770;2023-02-23T06:41:51;55.43;;;27.60;;
21352;SDS011;10834;52.268;6.770;2023-02-23T06:44:37;65.43;;;30.97;;
21352;SDS011;10834;52.268;6.770;2023-02-23T06:47:24;58.90;;;29.17;;
21352;SDS011;10834;52.268;6.770;2023-02-23T06:50:10;65.57;;;27.90;;
21352;SDS011;10834;52.268;6.770;2023-02-23T06:52:56;66.57;;;31.40;;
21352;SDS011;10834;52.268;6.770;2023-02-23T06:55:43;62.93;;;30.40;;
21352;SDS011;10834;52.268;6.770;2023-02-23T06:58:29;61.27;;;29.40;;
21352;SDS011;10834;52.268;6.770;2023-02-23T07:01:15;68.73;;;30.43;;
21352;SDS011;10834;52.268;6.770;2023-02-23T07:04:01;55.83;;;29.33;;
21352;SDS011;10834;52.268;6.770;2023-02-23T07:06:47;67.73;;;32.00;;
21352;SDS011;10834;52.268;6.770;2023-02-23T07:09:34;69.83;;;32.27;;
21352;SDS011;10834;52.268;6.770;2023-02-23T07:12:19;66.20;;;31.27;;
21352;SDS011;10834;52.268;6.770;2023-02-23T07:15:06;69.43;;;31.83;;
21352;SDS011;10834;52.268;6.770;2023-02-23T07:17:52;74.67;;;32.43;;
21352;SDS011;10834;52.268;6.770;2023-02-23T07:20:38;66.80;;;32.43;;
21352;SDS011;10834;52.268;6.770;2023-02-23T07:23:25;75.93;;;32.30;;
21352;SDS011;10834;52.268;6.770;2023-02-23T07:26:11;67.93;;;31.53;;
21352;SDS011;10834;52.268;6.770;2023-02-23T07:29:00;65.87;;;31.30;;
21352;SDS011;10834;52.268;6.770;2023-02-23T07:31:46;79.33;;;34.13;;
21352;SDS011;10834;52.268;6.770;2023-02-23T07:34:34;81.73;;;35.03;;
21352;SDS011;10834;52.268;6.770;2023-02-23T07:37:21;69.30;;;33.40;;
21352;SDS011;10834;52.268;6.770;2023-02-23T07:40:07;70.30;;;33.30;;
21352;SDS011;10834;52.268;6.770;2023-02-23T07:42:54;70.83;;;32.43;;
21352;SDS011;10834;52.268;6.770;2023-02-23T07:45:40;72.23;;;34.10;;
21352;SDS011;10834;52.268;6.770;2023-02-23T07:48:26;71.67;;;33.77;;
21352;SDS011;10834;52.268;6.770;2023-02-23T07:51:13;76.23;;;33.67;;
21352;SDS011;10834;52.268;6.770;2023-02-23T07:54:02;60.03;;;31.03;;
21352;SDS011;10834;52.268;6.770;2023-02-23T07:56:49;70.13;;;31.13;;
21352;SDS011;10834;52.268;6.770;2023-02-23T07:59:35;70.67;;;32.37;;
21352;SDS011;10834;52.268;6.770;2023-02-23T08:02:23;67.97;;;32.57;;
21352;SDS011;10834;52.268;6.770;2023-02-23T08:05:09;70.00;;;32.17;;
21352;SDS011;10834;52.268;6.770;2023-02-23T08:07:56;68.83;;;32.30;;
21352;SDS011;10834;52.268;6.770;2023-02-23T08:10:42;68.97;;;32.90;;
21352;SDS011;10834;52.268;6.770;2023-02-23T08:13:29;70.33;;;33.57;;
21352;SDS011;10834;52.268;6.770;2023-02-23T08:16:16;69.13;;;31.10;;
21352;SDS011;10834;52.268;6.770;2023-02-23T08:19:02;68.37;;;34.30;;
21352;SDS011;10834;52.268;6.770;2023-02-23T08:21:49;74.30;;;33.37;;
21352;SDS011;10834;52.268;6.770;2023-02-23T08:24:35;68.27;;;32.23;;
21352;SDS011;10834;52.268;6.770;2023-02-23T08:27:21;63.20;;;32.93;;
21352;SDS011;10834;52.268;6.770;2023-02-23T08:30:08;70.47;;;32.37;;
21352;SDS011;10834;52.268;6.770;2023-02-23T08:32:54;73.27;;;33.87;;
21352;SDS011;10834;52.268;6.770;2023-02-23T08:35:41;66.23;;;32.20;;
21352;SDS011;10834;52.268;6.770;2023-02-23T08:38:27;72.07;;;31.80;;
21352;SDS011;10834;52.268;6.770;2023-02-23T08:41:13;71.40;;;32.10;;
21352;SDS011;10834;52.268;6.770;2023-02-23T08:44:00;67.50;;;31.73;;
21352;SDS011;10834;52.268;6.770;2023-02-23T08:46:46;69.00;;;31.77;;
21352;SDS011;10834;52.268;6.770;2023-02-23T08:49:32;62.13;;;32.40;;
21352;SDS011;10834;52.268;6.770;2023-02-23T08:52:18;70.20;;;32.17;;
21352;SDS011;10834;52.268;6.770;2023-02-23T08:55:05;63.53;;;30.27;;
21352;SDS011;10834;52.268;6.770;2023-02-23T08:57:52;62.37;;;30.07;;
21352;SDS011;10834;52.268;6.770;2023-02-23T09:00:38;69.20;;;31.03;;
21352;SDS011;10834;52.268;6.770;2023-02-23T09:03:24;65.93;;;30.67;;
21352;SDS011;10834;52.268;6.770;2023-02-23T09:06:14;59.23;;;29.30;;
21352;SDS011;10834;52.268;6.770;2023-02-23T09:09:03;66.20;;;29.97;;
21352;SDS011;10834;52.268;6.770;2023-02-23T09:11:49;55.23;;;27.77;;
21352;SDS011;10834;52.268;6.770;2023-02-23T09:14:35;56.93;;;28.53;;
21352;SDS011;10834;52.268;6.770;2023-02-23T09:17:21;58.03;;;28.13;;
21352;SDS011;10834;52.268;6.770;2023-02-23T09:20:08;60.23;;;26.67;;
21352;SDS011;10834;52.268;6.770;2023-02-23T09:22:58;57.43;;;28.63;;
21352;SDS011;10834;52.268;6.770;2023-02-23T09:25:44;56.13;;;26.93;;
21352;SDS011;10834;52.268;6.770;2023-02-23T09:28:31;56.00;;;27.20;;
21352;SDS011;10834;52.268;6.770;2023-02-23T09:31:19;57.53;;;28.23;;
21352;SDS011;10834;52.268;6.770;2023-02-23T09:34:07;53.97;;;26.17;;
21352;SDS011;10834;52.268;6.770;2023-02-23T09:36:53;59.73;;;28.13;;
21352;SDS011;10834;52.268;6.770;2023-02-23T09:39:40;55.93;;;26.57;;
21352;SDS011;10834;52.268;6.770;2023-02-23T09:42:40;54.03;;;24.93;;
21352;SDS011;10834;52.268;6.770;2023-02-23T09:48:37;54.07;;;24.83;;
21352;SDS011;10834;52.268;6.770;2023-02-23T09:51:23;51.73;;;25.87;;
21352;SDS011;10834;52.268;6.770;2023-02-23T09:54:11;49.03;;;25.40;;
21352;SDS011;10834;52.268;6.770;2023-02-23T09:56:59;45.87;;;23.37;;
21352;SDS011;10834;52.268;6.770;2023-02-23T09:59:49;40.77;;;22.33;;
21352;SDS011;10834;52.268;6.770;2023-02-23T10:02:38;41.57;;;22.47;;
21352;SDS011;10834;52.268;6.770;2023-02-23T10:06:00;42.17;;;22.77;;
21352;SDS011;10834;52.268;6.770;2023-02-23T10:15:12;46.40;;;23.73;;
21352;SDS011;10834;52.268;6.770;2023-02-23T10:27:01;47.37;;;24.50;;
21352;SDS011;10834;52.268;6.770;2023-02-23T10:29:54;39.67;;;21.60;;
21352;SDS011;10834;52.268;6.770;2023-02-23T10:35:42;43.70;;;22.17;;
21352;SDS011;10834;52.268;6.770;2023-02-23T10:38:29;43.17;;;21.77;;
21352;SDS011;10834;52.268;6.770;2023-02-23T10:41:15;44.87;;;20.73;;
21352;SDS011;10834;52.268;6.770;2023-02-23T10:44:02;39.23;;;22.03;;
21352;SDS011;10834;52.268;6.770;2023-02-23T10:46:54;42.17;;;22.00;;
21352;SDS011;10834;52.268;6.770;2023-02-23T10:52:34;40.97;;;22.53;;
21352;SDS011;10834;52.268;6.770;2023-02-23T10:55:27;41.00;;;21.37;;
21352;SDS011;10834;52.268;6.770;2023-02-23T10:58:15;44.83;;;22.03;;
21352;SDS011;10834;52.268;6.770;2023-02-23T11:01:04;44.77;;;20.93;;
21352;SDS011;10834;52.268;6.770;2023-02-23T11:03:50;40.00;;;21.03;;
21352;SDS011;10834;52.268;6.770;2023-02-23T11:06:37;41.50;;;21.63;;
21352;SDS011;10834;52.268;6.770;2023-02-23T11:09:25;43.73;;;22.00;;
21352;SDS011;10834;52.268;6.770;2023-02-23T11:12:20;43.37;;;21.30;;
21352;SDS011;10834;52.268;6.770;2023-02-23T11:18:19;44.00;;;21.63;;
21352;SDS011;10834;52.268;6.770;2023-02-23T11:21:08;40.77;;;22.27;;
21352;SDS011;10834;52.268;6.770;2023-02-23T11:23:56;43.40;;;22.17;;
21352;SDS011;10834;52.268;6.770;2023-02-23T11:26:43;47.70;;;21.40;;
21352;SDS011;10834;52.268;6.770;2023-02-23T11:29:36;39.73;;;20.27;;
21352;SDS011;10834;52.268;6.770;2023-02-23T11:38:15;47.23;;;21.60;;
21352;SDS011;10834;52.268;6.770;2023-02-23T11:41:21;43.57;;;19.23;;
21352;SDS011;10834;52.268;6.770;2023-02-23T11:44:17;51.43;;;23.57;;
21352;SDS011;10834;52.268;6.770;2023-02-23T11:47:12;46.67;;;21.17;;
21352;SDS011;10834;52.268;6.770;2023-02-23T11:50:01;50.50;;;23.37;;
21352;SDS011;10834;52.268;6.770;2023-02-23T11:52:51;44.33;;;20.43;;
21352;SDS011;10834;52.268;6.770;2023-02-23T11:56:00;47.23;;;20.90;;
21352;SDS011;10834;52.268;6.770;2023-02-23T11:58:56;48.57;;;22.30;;
21352;SDS011;10834;52.268;6.770;2023-02-23T12:01:49;49.47;;;21.93;;
21352;SDS011;10834;52.268;6.770;2023-02-23T12:04:37;51.30;;;22.10;;
21352;SDS011;10834;52.268;6.770;2023-02-23T12:10:23;44.83;;;20.37;;
21352;SDS011;10834;52.268;6.770;2023-02-23T12:16:38;51.17;;;21.17;;
21352;SDS011;10834;52.268;6.770;2023-02-23T12:19:38;46.27;;;20.90;;
21352;SDS011;10834;52.268;6.770;2023-02-23T12:22:31;43.07;;;19.63;;
21352;SDS011;10834;52.268;6.770;2023-02-23T12:25:25;46.17;;;20.30;;
21352;SDS011;10834;52.268;6.770;2023-02-23T12:28:19;43.30;;;20.00;;
21352;SDS011;10834;52.268;6.770;2023-02-23T12:34:21;42.37;;;20.07;;
21352;SDS011;10834;52.268;6.770;2023-02-23T12:40:25;45.47;;;21.47;;
21352;SDS011;10834;52.268;6.770;2023-02-23T12:46:26;38.57;;;17.63;;
21352;SDS011;10834;52.268;6.770;2023-02-23T12:49:35;45.53;;;20.47;;
21352;SDS011;10834;52.268;6.770;2023-02-23T12:52:28;46.00;;;19.23;;
21352;SDS011;10834;52.268;6.770;2023-02-23T12:55:25;47.13;;;22.13;;
21352;SDS011;10834;52.268;6.770;2023-02-23T13:01:38;40.83;;;20.33;;
21352;SDS011;10834;52.268;6.770;2023-02-23T13:08:42;42.03;;;18.67;;
21352;SDS011;10834;52.268;6.770;2023-02-23T13:18:26;43.07;;;19.97;;
21352;SDS011;10834;52.268;6.770;2023-02-23T13:21:56;43.73;;;19.77;;
21352;SDS011;10834;52.268;6.770;2023-02-23T13:24:35;43.30;;;19.43;;
21352;SDS011;10834;52.268;6.770;2023-02-23T13:27:35;45.73;;;20.13;;
21352;SDS011;10834;52.268;6.770;2023-02-23T13:30:25;48.07;;;20.40;;
21352;SDS011;10834;52.268;6.770;2023-02-23T13:33:34;40.13;;;18.97;;
21352;SDS011;10834;52.268;6.770;2023-02-23T13:36:20;40.40;;;18.47;;
21352;SDS011;10834;52.268;6.770;2023-02-23T13:45:51;42.20;;;17.03;;
21352;SDS011;10834;52.268;6.770;2023-02-23T13:51:53;39.07;;;16.97;;
21352;SDS011;10834;52.268;6.770;2023-02-23T13:54:53;40.17;;;17.00;;
21352;SDS011;10834;52.268;6.770;2023-02-23T13:57:42;38.83;;;15.60;;
21352;SDS011;10834;52.268;6.770;2023-02-23T14:00:30;36.17;;;17.10;;
21352;SDS011;10834;52.268;6.770;2023-02-23T14:03:20;39.93;;;16.13;;
21352;SDS011;10834;52.268;6.770;2023-02-23T14:06:10;37.97;;;15.00;;
21352;SDS011;10834;52.268;6.770;2023-02-23T14:09:09;31.27;;;14.60;;
21352;SDS011;10834;52.268;6.770;2023-02-23T14:18:27;35.57;;;15.50;;
21352;SDS011;10834;52.268;6.770;2023-02-23T14:21:25;34.63;;;15.67;;
21352;SDS011;10834;52.268;6.770;2023-02-23T14:24:20;35.27;;;14.70;;
21352;SDS011;10834;52.268;6.770;2023-02-23T14:27:23;26.97;;;13.70;;
21352;SDS011;10834;52.268;6.770;2023-02-23T14:30:19;29.13;;;13.20;;
21352;SDS011;10834;52.268;6.770;2023-02-23T14:33:06;29.23;;;14.70;;
21352;SDS011;10834;52.268;6.770;2023-02-23T14:39:23;26.43;;;13.57;;
21352;SDS011;10834;52.268;6.770;2023-02-23T14:42:17;33.80;;;15.83;;
21352;SDS011;10834;52.268;6.770;2023-02-23T14:45:15;34.03;;;15.33;;
21352;SDS011;10834;52.268;6.770;2023-02-23T14:48:14;30.67;;;15.63;;
21352;SDS011;10834;52.268;6.770;2023-02-23T14:51:15;33.13;;;14.87;;
21352;SDS011;10834;52.268;6.770;2023-02-23T14:54:11;40.07;;;16.77;;
21352;SDS011;10834;52.268;6.770;2023-02-23T14:57:14;32.50;;;15.90;;
21352;SDS011;10834;52.268;6.770;2023-02-23T15:03:08;29.97;;;14.70;;
21352;SDS011;10834;52.268;6.770;2023-02-23T15:05:59;34.13;;;14.47;;
21352;SDS011;10834;52.268;6.770;2023-02-23T15:08:46;35.30;;;16.27;;
21352;SDS011;10834;52.268;6.770;2023-02-23T15:11:32;33.60;;;17.97;;
21352;SDS011;10834;52.268;6.770;2023-02-23T15:14:18;37.40;;;16.20;;
21352;SDS011;10834;52.268;6.770;2023-02-23T15:17:08;40.30;;;16.53;;
21352;SDS011;10834;52.268;6.770;2023-02-23T15:20:03;43.73;;;18.27;;
21352;SDS011;10834;52.268;6.770;2023-02-23T15:22:52;41.80;;;16.57;;
21352;SDS011;10834;52.268;6.770;2023-02-23T15:25:39;41.37;;;16.90;;
21352;SDS011;10834;52.268;6.770;2023-02-23T15:28:26;38.20;;;15.90;;
21352;SDS011;10834;52.268;6.770;2023-02-23T15:31:13;41.17;;;16.03;;
21352;SDS011;10834;52.268;6.770;2023-02-23T15:33:59;40.70;;;17.27;;
21352;SDS011;10834;52.268;6.770;2023-02-23T15:36:46;43.30;;;16.83;;
21352;SDS011;10834;52.268;6.770;2023-02-23T15:39:49;42.17;;;17.17;;
21352;SDS011;10834;52.268;6.770;2023-02-23T15:42:50;42.43;;;17.50;;
21352;SDS011;10834;52.268;6.770;2023-02-23T15:45:42;41.43;;;17.17;;
21352;SDS011;10834;52.268;6.770;2023-02-23T15:48:43;44.70;;;18.27;;
21352;SDS011;10834;52.268;6.770;2023-02-23T15:51:34;44.20;;;17.07;;
21352;SDS011;10834;52.268;6.770;2023-02-23T15:54:49;43.63;;;17.63;;
21352;SDS011;10834;52.268;6.770;2023-02-23T15:57:48;41.40;;;17.27;;
21352;SDS011;10834;52.268;6.770;2023-02-23T16:00:39;46.57;;;18.67;;
21352;SDS011;10834;52.268;6.770;2023-02-23T16:03:34;48.20;;;19.50;;
21352;SDS011;10834;52.268;6.770;2023-02-23T16:06:23;51.00;;;19.90;;
21352;SDS011;10834;52.268;6.770;2023-02-23T16:09:13;53.50;;;18.97;;
21352;SDS011;10834;52.268;6.770;2023-02-23T16:12:13;47.37;;;19.33;;
21352;SDS011;10834;52.268;6.770;2023-02-23T16:15:24;42.10;;;17.10;;
21352;SDS011;10834;52.268;6.770;2023-02-23T16:18:15;47.13;;;18.60;;
21352;SDS011;10834;52.268;6.770;2023-02-23T16:21:04;42.47;;;18.17;;
21352;SDS011;10834;52.268;6.770;2023-02-23T16:23:52;55.43;;;22.53;;
21352;SDS011;10834;52.268;6.770;2023-02-23T16:26:46;69.67;;;39.53;;
21352;SDS011;10834;52.268;6.770;2023-02-23T16:29:38;71.33;;;40.00;;
21352;SDS011;10834;52.268;6.770;2023-02-23T16:32:34;59.17;;;30.03;;
21352;SDS011;10834;52.268;6.770;2023-02-23T16:35:45;56.77;;;27.47;;
21352;SDS011;10834;52.268;6.770;2023-02-23T16:38:37;54.53;;;22.03;;
21352;SDS011;10834;52.268;6.770;2023-02-23T16:41:32;52.67;;;21.83;;
21352;SDS011;10834;52.268;6.770;2023-02-23T16:44:19;57.13;;;20.63;;
21352;SDS011;10834;52.268;6.770;2023-02-23T16:49:52;49.30;;;18.67;;
21352;SDS011;10834;52.268;6.770;2023-02-23T16:52:38;31.97;;;11.70;;
21352;SDS011;10834;52.268;6.770;2023-02-23T16:55:30;29.50;;;9.17;;
21352;SDS011;10834;52.268;6.770;2023-02-23T16:58:37;16.57;;;5.40;;
21352;SDS011;10834;52.268;6.770;2023-02-23T17:01:24;15.80;;;5.37;;
21352;SDS011;10834;52.268;6.770;2023-02-23T17:04:12;20.60;;;5.13;;
21352;SDS011;10834;52.268;6.770;2023-02-23T17:07:01;14.47;;;4.33;;
21352;SDS011;10834;52.268;6.770;2023-02-23T17:09:47;16.93;;;4.73;;
21352;SDS011;10834;52.268;6.770;2023-02-23T17:12:34;12.43;;;4.30;;
21352;SDS011;10834;52.268;6.770;2023-02-23T17:15:20;14.17;;;4.70;;
21352;SDS011;10834;52.268;6.770;2023-02-23T17:18:08;16.53;;;8.13;;
21352;SDS011;10834;52.268;6.770;2023-02-23T17:20:55;13.00;;;7.23;;
21352;SDS011;10834;52.268;6.770;2023-02-23T17:23:42;11.83;;;5.23;;
21352;SDS011;10834;52.268;6.770;2023-02-23T17:26:38;8.20;;;2.70;;
21352;SDS011;10834;52.268;6.770;2023-02-23T17:29:24;4.90;;;2.00;;
21352;SDS011;10834;52.268;6.770;2023-02-23T17:32:10;7.97;;;2.20;;
21352;SDS011;10834;52.268;6.770;2023-02-23T17:34:56;12.03;;;3.03;;
21352;SDS011;10834;52.268;6.770;2023-02-23T17:37:42;11.83;;;3.30;;
21352;SDS011;10834;52.268;6.770;2023-02-23T17:40:29;15.57;;;3.00;;
21352;SDS011;10834;52.268;6.770;2023-02-23T17:43:20;9.00;;;3.43;;
21352;SDS011;10834;52.268;6.770;2023-02-23T17:46:06;17.47;;;6.97;;
21352;SDS011;10834;52.268;6.770;2023-02-23T17:48:52;14.83;;;5.50;;
21352;SDS011;10834;52.268;6.770;2023-02-23T17:51:39;19.47;;;4.37;;
21352;SDS011;10834;52.268;6.770;2023-02-23T17:54:26;14.20;;;2.73;;
21352;SDS011;10834;52.268;6.770;2023-02-23T17:57:13;18.17;;;5.20;;
21352;SDS011;10834;52.268;6.770;2023-02-23T17:59:59;17.70;;;6.07;;
21352;SDS011;10834;52.268;6.770;2023-02-23T18:02:45;15.50;;;5.13;;
21352;SDS011;10834;52.268;6.770;2023-02-23T18:05:32;18.07;;;5.07;;
21352;SDS011;10834;52.268;6.770;2023-02-23T18:08:18;19.47;;;5.33;;
21352;SDS011;10834;52.268;6.770;2023-02-23T18:11:04;17.40;;;4.33;;
21352;SDS011;10834;52.268;6.770;2023-02-23T18:13:50;24.00;;;4.70;;
21352;SDS011;10834;52.268;6.770;2023-02-23T18:16:37;21.47;;;7.30;;
21352;SDS011;10834;52.268;6.770;2023-02-23T18:19:23;16.80;;;4.97;;
21352;SDS011;10834;52.268;6.770;2023-02-23T18:22:10;23.00;;;5.47;;
21352;SDS011;10834;52.268;6.770;2023-02-23T18:24:56;22.87;;;5.57;;
21352;SDS011;10834;52.268;6.770;2023-02-23T18:27:43;28.10;;;7.10;;
21352;SDS011;10834;52.268;6.770;2023-02-23T18:30:29;61.97;;;22.17;;
21352;SDS011;10834;52.268;6.770;2023-02-23T18:33:15;26.87;;;7.00;;
21352;SDS011;10834;52.268;6.770;2023-02-23T18:36:01;32.73;;;10.23;;
21352;SDS011;10834;52.268;6.770;2023-02-23T18:38:48;29.70;;;5.77;;
21352;SDS011;10834;52.268;6.770;2023-02-23T18:41:35;15.73;;;3.67;;
21352;SDS011;10834;52.268;6.770;2023-02-23T18:44:21;26.37;;;5.87;;
21352;SDS011;10834;52.268;6.770;2023-02-23T18:47:07;23.73;;;5.40;;
21352;SDS011;10834;52.268;6.770;2023-02-23T18:49:53;26.13;;;5.63;;